Hauptseite
METAR-TAF:

METAR-TAF

Flughäfen :

Flughafen Kairo

Kairo, Ägypten

Breite: 30-08N, Länge: 031-24E, Höhe: 64 m

Beobachtung

Neuester Wetterbericht von vor 35 Minuten, um 05:00 UTC
Wind 5 kt aus Ost/Nordost
Temperatur 21°C
Luftfeuchtigkeit 56%
Luftdruck 1012 hPa
Sichtweite 10 km oder mehr
keine Wolken unter 1500 m und keine Kumulonimbus oder Gewitterwolken

METAR: HECA 120500Z 06005KT CAVOK 21/12 Q1012 NOSIG

Zeit: 07:35 (05:35 UTC)

Prognose

Neuester Wetterbericht von vor 35 Minuten, um 05:00 UTC
Gültige Prognose vom 12 um 06 UTC bis 13 um 12 UTC
Wind 8 kt aus Ost/Nordost
Sichtweite: 6000 m
Zeitweise
vom 12 um 06 UTC bis 12 um 08 UTC
Übergehend zu
vom 12 um 08 UTC bis 12 um 10 UTC
Wind 10 kt aus Nord/Nordost
Sichtweite 10 km oder mehr
Leicht bewölkt in der Höhe von 2500 ft

TAF: HECA 120500Z 1206/1312 07008KT 6000 NSC TEMPO 1206/1208 4000HZ BECMG 1208/1210 03010KT 9999 FEW025

Wetterbeobachtungen und Prognosen von mehr als 4000 Flughäfen (METAR und TAF Bericht).

Die verfügbaren Stationen werden durch gelbe und rote Markierungen auf der Karte dargestellt.

Führen Sie die Maus auf sie, um den Namen der Station zu sehen.

Darauf klicken, um die Beobachtung von Wetterbeobachtungen und Prognosen zu sehen.

Um die Karte zu ändern : klicken Sie auf den grünen Tasten mit einem schwarzen Kreuz Zum Vergrößern, auf den grünen Button mit einem Gedankenstrich zu verkleinern, oder auf die grünen Pfeile für benachbarte Karten.


METAR-TAF: